Аэропорт: Бегишево. Набережные Челны, Нижнекамск

ICAO: UWKE

METAR:
2019/05/25 20:00
UWKE 252000Z 15003MPS CAVOK 08/M02 Q1018 R03/090070 NOSIG RMK QFE746/0995
METAR:
2019/05/25 18:21
TAF UWKE 251645Z 2518/2618 17003G08MPS 9999 SCT020 
      TEMPO 2518/2603 21003G08MPS 
      BECMG 2603/2606 18006G12MPS